createdAt,value
2018-10-09T00:00:01.000Z,23
2018-10-09T00:01:01.000Z,23
2018-10-09T00:03:01.000Z,23
2018-10-09T00:05:01.000Z,23
2018-10-09T00:06:01.000Z,22.9
2018-10-09T00:08:01.000Z,22.9
2018-10-09T00:09:01.000Z,22.8
2018-10-09T00:11:01.000Z,22.8
2018-10-09T00:13:01.000Z,22.8
2018-10-09T00:14:01.000Z,22.8
2018-10-09T00:16:01.000Z,22.8
2018-10-09T00:17:01.000Z,22.8
2018-10-09T00:18:01.000Z,22.8
2018-10-09T00:19:01.000Z,22.9
2018-10-09T00:20:01.000Z,22.9
2018-10-09T00:22:01.000Z,22.9
2018-10-09T00:23:01.000Z,22.9
2018-10-09T00:24:01.000Z,22.9
2018-10-09T00:25:46.000Z,22.9
2018-10-09T00:27:01.000Z,22.9
2018-10-09T00:28:46.000Z,22.9
2018-10-09T00:30:01.000Z,22.8
2018-10-09T00:31:01.000Z,22.8
2018-10-09T00:32:46.000Z,22.8
2018-10-09T00:34:01.000Z,22.7
2018-10-09T00:36:01.000Z,22.6
2018-10-09T00:38:01.000Z,22.6
2018-10-09T00:40:01.000Z,22.6
2018-10-09T00:42:01.000Z,22.6
2018-10-09T00:44:01.000Z,22.5
2018-10-09T00:45:01.000Z,22.6
2018-10-09T00:47:01.000Z,22.6
2018-10-09T00:48:01.000Z,22.6
2018-10-09T00:49:01.000Z,22.7
2018-10-09T00:50:01.000Z,22.7
2018-10-09T00:52:01.000Z,22.8
2018-10-09T00:54:01.000Z,22.8
2018-10-09T00:55:46.000Z,22.9
2018-10-09T00:57:01.000Z,22.8
2018-10-09T00:59:01.000Z,22.7
2018-10-09T01:00:01.000Z,22.7
2018-10-09T01:01:01.000Z,22.7
2018-10-09T01:03:01.000Z,22.7
2018-10-09T01:05:01.000Z,22.6
2018-10-09T01:07:01.000Z,22.5
2018-10-09T01:09:01.000Z,22.5
2018-10-09T01:11:01.000Z,22.5
2018-10-09T01:12:01.000Z,22.5
2018-10-09T01:13:46.000Z,22.5
2018-10-09T01:15:01.000Z,22.5
2018-10-09T01:16:01.000Z,22.5
2018-10-09T01:18:01.000Z,22.5
2018-10-09T01:20:01.000Z,22.5
2018-10-09T01:21:01.000Z,22.5
2018-10-09T01:23:01.000Z,22.5
2018-10-09T01:24:01.000Z,22.5
2018-10-09T01:25:46.000Z,22.5
2018-10-09T01:27:02.000Z,22.5
2018-10-09T01:28:02.000Z,22.5
2018-10-09T01:29:02.000Z,22.5
2018-10-09T01:30:46.000Z,22.6
2018-10-09T01:32:02.000Z,22.6
2018-10-09T01:33:02.000Z,22.6
2018-10-09T01:34:02.000Z,22.7
2018-10-09T01:36:02.000Z,22.7
2018-10-09T01:37:02.000Z,22.7
2018-10-09T01:38:02.000Z,22.7
2018-10-09T01:39:02.000Z,22.8
2018-10-09T01:41:02.000Z,22.8
2018-10-09T01:43:02.000Z,22.6
2018-10-09T01:44:02.000Z,22.6
2018-10-09T01:46:02.000Z,22.6
2018-10-09T01:48:02.000Z,22.6
2018-10-09T01:49:02.000Z,22.6
2018-10-09T01:51:02.000Z,22.6
2018-10-09T01:53:02.000Z,22.6
2018-10-09T01:55:02.000Z,22.6
2018-10-09T01:56:02.000Z,22.6
2018-10-09T01:58:02.000Z,22.7
2018-10-09T01:59:02.000Z,22.7
2018-10-09T02:00:02.000Z,22.8
2018-10-09T02:01:02.000Z,22.9
2018-10-09T02:02:46.000Z,22.9
2018-10-09T02:04:02.000Z,22.8
2018-10-09T02:05:02.000Z,22.8
2018-10-09T02:07:02.000Z,22.8
2018-10-09T02:08:02.000Z,22.8
2018-10-09T02:10:02.000Z,22.8
2018-10-09T02:12:02.000Z,22.8
2018-10-09T02:13:02.000Z,22.8
2018-10-09T02:14:02.000Z,22.8
2018-10-09T02:15:02.000Z,22.9
2018-10-09T02:17:02.000Z,22.8
2018-10-09T02:18:02.000Z,22.8
2018-10-09T02:19:02.000Z,22.8
2018-10-09T02:20:02.000Z,22.8
2018-10-09T02:22:02.000Z,22.8
2018-10-09T02:23:02.000Z,22.8
2018-10-09T02:25:02.000Z,22.8
2018-10-09T02:26:02.000Z,22.8
2018-10-09T02:27:02.000Z,22.8
2018-10-09T02:28:02.000Z,22.7
2018-10-09T02:30:02.000Z,22.7
2018-10-09T02:32:02.000Z,22.5
2018-10-09T02:33:02.000Z,22.5
2018-10-09T02:34:02.000Z,22.4
2018-10-09T02:35:02.000Z,22.4
2018-10-09T02:37:02.000Z,22.3
2018-10-09T02:39:02.000Z,22.2
2018-10-09T02:40:02.000Z,22.2
2018-10-09T02:42:02.000Z,22.1
2018-10-09T02:43:02.000Z,22.1
2018-10-09T02:44:02.000Z,22.1
2018-10-09T02:45:47.000Z,22.2
2018-10-09T02:47:02.000Z,22.1
2018-10-09T02:48:02.000Z,22.1
2018-10-09T02:49:02.000Z,22.1
2018-10-09T02:50:02.000Z,22.1
2018-10-09T02:52:02.000Z,22.1
2018-10-09T02:53:02.000Z,22.1
2018-10-09T02:54:02.000Z,22.1
2018-10-09T02:55:02.000Z,22.2
2018-10-09T02:56:47.000Z,22.2
2018-10-09T02:58:02.000Z,22.1
2018-10-09T02:59:02.000Z,22.1
2018-10-09T03:00:02.000Z,22.1
2018-10-09T03:02:02.000Z,22
2018-10-09T03:04:02.000Z,21.8
2018-10-09T03:06:02.000Z,21.7
2018-10-09T03:08:02.000Z,21.7
2018-10-09T03:10:02.000Z,21.6
2018-10-09T03:12:02.000Z,21.5
2018-10-09T03:14:02.000Z,21.5
2018-10-09T03:15:02.000Z,21.5
2018-10-09T03:17:02.000Z,21.6
2018-10-09T03:18:02.000Z,21.7
2018-10-09T03:20:02.000Z,21.7
2018-10-09T03:21:02.000Z,21.8
2018-10-09T03:22:02.000Z,21.8
2018-10-09T03:23:02.000Z,21.8
2018-10-09T03:24:02.000Z,21.9
2018-10-09T03:25:02.000Z,21.9
2018-10-09T03:27:02.000Z,21.8
2018-10-09T03:28:02.000Z,21.7
2018-10-09T03:29:02.000Z,21.7
2018-10-09T03:30:02.000Z,21.7
2018-10-09T03:32:02.000Z,21.6
2018-10-09T03:34:02.000Z,21.5
2018-10-09T03:35:02.000Z,21.4
2018-10-09T03:36:02.000Z,21.5
2018-10-09T03:37:47.000Z,21.5
2018-10-09T03:39:02.000Z,21.5
2018-10-09T03:41:02.000Z,21.6
2018-10-09T03:43:02.000Z,21.5
2018-10-09T03:45:02.000Z,21.5
2018-10-09T03:46:02.000Z,21.6
2018-10-09T03:47:02.000Z,21.6
2018-10-09T03:49:02.000Z,21.8
2018-10-09T03:51:02.000Z,21.8
2018-10-09T03:52:02.000Z,21.8
2018-10-09T03:53:47.000Z,21.8
2018-10-09T03:55:02.000Z,21.8
2018-10-09T03:57:02.000Z,21.8
2018-10-09T03:59:02.000Z,21.8
2018-10-09T04:00:02.000Z,21.8
2018-10-09T04:01:02.000Z,21.8
2018-10-09T04:03:02.000Z,21.8
2018-10-09T04:05:02.000Z,21.8
2018-10-09T04:07:02.000Z,21.8
2018-10-09T04:09:02.000Z,21.7
2018-10-09T04:10:47.000Z,21.7
2018-10-09T04:12:02.000Z,21.7
2018-10-09T04:13:02.000Z,21.7
2018-10-09T04:14:02.000Z,21.8
2018-10-09T04:16:02.000Z,21.8
2018-10-09T04:17:02.000Z,21.8
2018-10-09T04:18:02.000Z,21.8
2018-10-09T04:20:02.000Z,21.8
2018-10-09T04:21:02.000Z,21.8
2018-10-09T04:23:02.000Z,21.7
2018-10-09T04:24:02.000Z,21.7
2018-10-09T04:26:02.000Z,21.7
2018-10-09T04:28:02.000Z,21.9
2018-10-09T04:30:02.000Z,22.2
2018-10-09T04:32:02.000Z,22.5
2018-10-09T04:33:02.000Z,22.6
2018-10-09T04:35:02.000Z,22.9
2018-10-09T04:37:02.000Z,23
2018-10-09T04:39:02.000Z,23.1
2018-10-09T04:41:02.000Z,23.3
2018-10-09T04:43:02.000Z,23.5
2018-10-09T04:45:02.000Z,23.6
2018-10-09T04:46:02.000Z,23.7
2018-10-09T04:47:47.000Z,23.9
2018-10-09T04:49:02.000Z,23.9
2018-10-09T04:51:02.000Z,24
2018-10-09T04:52:02.000Z,24.1
2018-10-09T04:54:02.000Z,24.3
2018-10-09T04:56:02.000Z,24.4
2018-10-09T04:58:02.000Z,24.4
2018-10-09T04:59:02.000Z,24.5
2018-10-09T05:01:02.000Z,24.6
2018-10-09T05:02:02.000Z,24.6
2018-10-09T05:03:47.000Z,24.7
2018-10-09T05:05:02.000Z,24.7
2018-10-09T05:07:02.000Z,24.8
2018-10-09T05:08:02.000Z,24.8
2018-10-09T05:10:02.000Z,24.9
2018-10-09T05:11:02.000Z,24.9
2018-10-09T05:13:02.000Z,25
2018-10-09T05:14:02.000Z,25
2018-10-09T05:15:02.000Z,25.1
2018-10-09T05:17:02.000Z,25.2
2018-10-09T05:18:02.000Z,25.2
2018-10-09T05:20:02.000Z,25.3
2018-10-09T05:21:02.000Z,25.3
2018-10-09T05:23:02.000Z,25.4
2018-10-09T05:24:02.000Z,25.4
2018-10-09T05:26:02.000Z,25.4
2018-10-09T05:27:02.000Z,25.4
2018-10-09T05:29:02.000Z,25.5
2018-10-09T05:31:02.000Z,25.4
2018-10-09T05:33:02.000Z,25.4
2018-10-09T05:35:02.000Z,25.4
2018-10-09T05:36:02.000Z,25.4
2018-10-09T05:38:02.000Z,25.5
2018-10-09T05:40:02.000Z,25.5
2018-10-09T05:42:01.000Z,25.5
2018-10-09T05:44:01.000Z,25.5
2018-10-09T05:45:01.000Z,25.5
2018-10-09T05:46:01.000Z,25.5
2018-10-09T05:47:01.000Z,25.6
2018-10-09T05:49:01.000Z,25.6
2018-10-09T05:50:46.000Z,25.7
2018-10-09T05:52:01.000Z,25.6
2018-10-09T05:53:01.000Z,25.7
2018-10-09T05:54:01.000Z,25.7
2018-10-09T05:55:01.000Z,25.8
2018-10-09T05:57:01.000Z,25.9
2018-10-09T05:58:01.000Z,25.9
2018-10-09T06:00:01.000Z,26
2018-10-09T06:01:01.000Z,26
2018-10-09T06:02:01.000Z,26.1
2018-10-09T06:03:01.000Z,26.2
2018-10-09T06:05:01.000Z,26.3
2018-10-09T06:07:01.000Z,26.2
2018-10-09T06:08:01.000Z,26.2
2018-10-09T06:10:01.000Z,26.3
2018-10-09T06:12:01.000Z,26.3
2018-10-09T06:14:01.000Z,26.3
2018-10-09T06:15:01.000Z,26.3
2018-10-09T06:17:01.000Z,26.3
2018-10-09T06:18:01.000Z,26.4
2018-10-09T06:20:01.000Z,26.5
2018-10-09T06:21:01.000Z,26.6
2018-10-09T06:23:01.000Z,26.7
2018-10-09T06:25:01.000Z,26.7
2018-10-09T06:27:01.000Z,26.5
2018-10-09T06:29:01.000Z,26.4
2018-10-09T06:30:01.000Z,26.4
2018-10-09T06:32:01.000Z,26.5
2018-10-09T06:34:01.000Z,26.5
2018-10-09T06:35:01.000Z,26.6
2018-10-09T06:37:01.000Z,26.7
2018-10-09T06:38:01.000Z,26.8
2018-10-09T06:39:46.000Z,26.9
2018-10-09T06:41:01.000Z,27
2018-10-09T06:43:01.000Z,27
2018-10-09T06:45:01.000Z,27
2018-10-09T06:46:02.000Z,27
2018-10-09T06:47:02.000Z,27.1
2018-10-09T06:48:02.000Z,27.2
2018-10-09T06:49:02.000Z,27.3
2018-10-09T06:50:47.000Z,27.4
2018-10-09T06:52:02.000Z,27.4
2018-10-09T06:54:02.000Z,27.4
2018-10-09T06:56:02.000Z,27.4
2018-10-09T06:58:02.000Z,27.3
2018-10-09T06:59:02.000Z,27.3
2018-10-09T07:00:02.000Z,27.4
2018-10-09T07:01:47.000Z,27.5
2018-10-09T07:03:02.000Z,27.5
2018-10-09T07:05:02.000Z,27.5
2018-10-09T07:07:02.000Z,27.5
2018-10-09T07:09:02.000Z,27.5
2018-10-09T07:10:02.000Z,27.5
2018-10-09T07:12:02.000Z,27.6
2018-10-09T07:13:02.000Z,27.6
2018-10-09T07:15:02.000Z,27.7
2018-10-09T07:16:02.000Z,27.7
2018-10-09T07:18:02.000Z,27.8
2018-10-09T07:20:02.000Z,27.9
2018-10-09T07:21:02.000Z,28
2018-10-09T07:22:47.000Z,28.1
2018-10-09T07:24:02.000Z,28.1
2018-10-09T07:25:02.000Z,28.1
2018-10-09T07:27:02.000Z,28.2
2018-10-09T07:29:02.000Z,28.1
2018-10-09T07:31:02.000Z,28.1
2018-10-09T07:32:47.000Z,28
2018-10-09T07:34:02.000Z,28
2018-10-09T07:35:02.000Z,28
2018-10-09T07:37:02.000Z,28.1
2018-10-09T07:38:02.000Z,28.2
2018-10-09T07:39:02.000Z,28.3
2018-10-09T07:41:02.000Z,28.4
2018-10-09T07:43:02.000Z,28.5
2018-10-09T07:44:02.000Z,28.5
2018-10-09T07:45:02.000Z,28.6
2018-10-09T07:47:02.000Z,28.6
2018-10-09T07:49:01.000Z,28.6
2018-10-09T07:51:01.000Z,28.6
2018-10-09T07:53:01.000Z,28.7
2018-10-09T07:55:01.000Z,28.7
2018-10-09T07:56:01.000Z,28.9
2018-10-09T07:58:01.000Z,29.2
2018-10-09T07:59:01.000Z,29.4
2018-10-09T08:00:46.000Z,29.7
2018-10-09T08:02:01.000Z,29.6
2018-10-09T08:03:01.000Z,29.3
2018-10-09T08:05:01.000Z,28.8
2018-10-09T08:06:01.000Z,28.6
2018-10-09T08:08:01.000Z,28.2
2018-10-09T08:09:01.000Z,28
2018-10-09T08:10:01.000Z,27.9
2018-10-09T08:12:01.000Z,27.8
2018-10-09T08:13:01.000Z,27.7
2018-10-09T08:15:01.000Z,27.5
2018-10-09T08:17:01.000Z,27.3
2018-10-09T08:19:01.000Z,27.2
2018-10-09T08:21:01.000Z,27
2018-10-09T08:22:01.000Z,27
2018-10-09T08:24:01.000Z,26.8
2018-10-09T08:26:01.000Z,26.6
2018-10-09T08:28:01.000Z,26.4
2018-10-09T08:29:01.000Z,26.4
2018-10-09T08:31:01.000Z,26.6
2018-10-09T08:33:01.000Z,26.7
2018-10-09T08:35:01.000Z,26.7
2018-10-09T08:37:01.000Z,26.6
2018-10-09T08:38:01.000Z,26.6
2018-10-09T08:40:01.000Z,26.6
2018-10-09T08:41:01.000Z,26.6
2018-10-09T08:43:01.000Z,26.7
2018-10-09T08:45:01.000Z,26.7
2018-10-09T08:47:01.000Z,26.7
2018-10-09T08:49:01.000Z,26.7
2018-10-09T08:50:01.000Z,26.8
2018-10-09T08:51:01.000Z,26.8
2018-10-09T08:52:01.000Z,26.9
2018-10-09T08:54:01.000Z,27.1
2018-10-09T08:55:01.000Z,27.2
2018-10-09T08:57:01.000Z,27.4
2018-10-09T08:58:01.000Z,27.5
2018-10-09T09:00:01.000Z,27.6
2018-10-09T09:02:01.000Z,27.6
2018-10-09T09:04:01.000Z,27.7
2018-10-09T09:06:01.000Z,27.7
2018-10-09T09:08:01.000Z,27.7
2018-10-09T09:10:01.000Z,27.7
2018-10-09T09:11:01.000Z,27.8
2018-10-09T09:13:01.000Z,27.8
2018-10-09T09:15:01.000Z,27.8
2018-10-09T09:16:01.000Z,27.9
2018-10-09T09:17:01.000Z,28
2018-10-09T09:19:01.000Z,28.1
2018-10-09T09:21:01.000Z,28.2
2018-10-09T09:22:01.000Z,28.2
2018-10-09T09:23:01.000Z,28.2
2018-10-09T09:24:01.000Z,28.3
2018-10-09T09:26:01.000Z,28.3
2018-10-09T09:27:01.000Z,28.4
2018-10-09T09:28:01.000Z,28.5
2018-10-09T09:30:01.000Z,28.6
2018-10-09T09:31:01.000Z,28.6
2018-10-09T09:33:01.000Z,28.5
2018-10-09T09:35:01.000Z,28.6
2018-10-09T09:37:01.000Z,28.6
2018-10-09T09:39:01.000Z,28.5
2018-10-09T09:41:01.000Z,28.4
2018-10-09T09:43:01.000Z,28.5
2018-10-09T09:44:01.000Z,28.4
2018-10-09T09:46:01.000Z,28.4
2018-10-09T09:48:01.000Z,28.3
2018-10-09T09:50:01.000Z,28.3
2018-10-09T09:52:01.000Z,28.3
2018-10-09T09:53:01.000Z,28.3
2018-10-09T09:54:01.000Z,28.4
2018-10-09T09:56:01.000Z,28.5
2018-10-09T09:57:02.000Z,28.5
2018-10-09T09:58:47.000Z,28.6
2018-10-09T10:00:02.000Z,28.6
2018-10-09T10:02:02.000Z,28.6
2018-10-09T10:03:02.000Z,28.6
2018-10-09T10:05:02.000Z,28.6
2018-10-09T10:06:02.000Z,28.6
2018-10-09T10:08:02.000Z,28.6
2018-10-09T10:10:02.000Z,28.5
2018-10-09T10:11:02.000Z,28.5
2018-10-09T10:13:02.000Z,28.4
2018-10-09T10:14:02.000Z,28.3
2018-10-09T10:16:02.000Z,28.4
2018-10-09T10:17:02.000Z,28.5
2018-10-09T10:19:02.000Z,28.6
2018-10-09T10:21:02.000Z,28.6
2018-10-09T10:23:02.000Z,28.6
2018-10-09T10:24:02.000Z,28.6
2018-10-09T10:25:02.000Z,28.7
2018-10-09T10:27:02.000Z,28.9
2018-10-09T10:28:02.000Z,29
2018-10-09T10:30:02.000Z,29.1
2018-10-09T10:31:02.000Z,29.1
2018-10-09T10:33:02.000Z,29.2
2018-10-09T10:34:02.000Z,29.2
2018-10-09T10:36:02.000Z,29.3
2018-10-09T10:37:02.000Z,29.4
2018-10-09T10:39:02.000Z,29.5
2018-10-09T10:41:02.000Z,29.4
2018-10-09T10:42:02.000Z,29.4
2018-10-09T10:44:02.000Z,29.4
2018-10-09T10:45:02.000Z,29.5
2018-10-09T10:47:02.000Z,29.6
2018-10-09T10:48:02.000Z,29.6
2018-10-09T10:49:02.000Z,29.7
2018-10-09T10:51:02.000Z,29.8
2018-10-09T10:52:02.000Z,29.8
2018-10-09T10:53:02.000Z,29.8
2018-10-09T10:54:02.000Z,29.8
2018-10-09T10:56:02.000Z,29.9
2018-10-09T10:58:02.000Z,29.8
2018-10-09T11:00:02.000Z,29.8
2018-10-09T11:01:02.000Z,29.7
2018-10-09T11:02:02.000Z,29.8
2018-10-09T11:04:02.000Z,29.8
2018-10-09T11:06:02.000Z,29.7
2018-10-09T11:07:02.000Z,29.7
2018-10-09T11:09:02.000Z,29.6
2018-10-09T11:11:02.000Z,29.5
2018-10-09T11:12:02.000Z,29.5
2018-10-09T11:13:02.000Z,29.5
2018-10-09T11:15:02.000Z,29.6
2018-10-09T11:17:02.000Z,29.6
2018-10-09T11:19:02.000Z,29.6
2018-10-09T11:20:02.000Z,29.6
2018-10-09T11:22:02.000Z,29.6
2018-10-09T11:23:02.000Z,29.6
2018-10-09T11:25:02.000Z,29.7
2018-10-09T11:27:02.000Z,29.6
2018-10-09T11:29:02.000Z,29.6
2018-10-09T11:31:02.000Z,29.5
2018-10-09T11:33:02.000Z,29.5
2018-10-09T11:34:02.000Z,29.5
2018-10-09T11:35:02.000Z,29.6
2018-10-09T11:37:02.000Z,29.7
2018-10-09T11:39:02.000Z,29.7
2018-10-09T11:40:02.000Z,29.8
2018-10-09T11:42:02.000Z,29.8
2018-10-09T11:44:02.000Z,29.8
2018-10-09T11:46:02.000Z,29.8
2018-10-09T11:48:02.000Z,29.7
2018-10-09T11:49:02.000Z,29.8
2018-10-09T11:50:47.000Z,29.8
2018-10-09T11:52:02.000Z,29.8
2018-10-09T11:53:02.000Z,29.8
2018-10-09T11:54:47.000Z,29.9
2018-10-09T11:56:02.000Z,29.9
2018-10-09T11:58:02.000Z,30
2018-10-09T12:00:02.000Z,29.9
2018-10-09T12:02:02.000Z,29.9
2018-10-09T12:03:02.000Z,29.9
2018-10-09T12:04:02.000Z,29.9
2018-10-09T12:06:02.000Z,30
2018-10-09T12:08:02.000Z,30.1
2018-10-09T12:09:47.000Z,30.1
2018-10-09T12:11:02.000Z,30.1
2018-10-09T12:13:02.000Z,30.1
2018-10-09T12:14:02.000Z,30.1
2018-10-09T12:15:02.000Z,30.2
2018-10-09T12:16:02.000Z,30.2
2018-10-09T12:17:02.000Z,30.3
2018-10-09T12:19:02.000Z,30.3
2018-10-09T12:21:02.000Z,30.3
2018-10-09T12:23:02.000Z,30.2
2018-10-09T12:25:02.000Z,30.2
2018-10-09T12:27:02.000Z,30.2
2018-10-09T12:28:02.000Z,30.2
2018-10-09T12:29:02.000Z,30.3
2018-10-09T12:31:02.000Z,30.3
2018-10-09T12:32:02.000Z,30.3
2018-10-09T12:33:02.000Z,30.3
2018-10-09T12:34:02.000Z,30.3
2018-10-09T12:36:02.000Z,30.3
2018-10-09T12:37:02.000Z,30.3
2018-10-09T12:39:02.000Z,30.4
2018-10-09T12:40:02.000Z,30.4
2018-10-09T12:41:47.000Z,30.5
2018-10-09T12:43:02.000Z,30.4
2018-10-09T12:44:02.000Z,30.4
2018-10-09T12:46:02.000Z,30.4
2018-10-09T12:47:47.000Z,30.5
2018-10-09T12:49:02.000Z,30.4
2018-10-09T12:51:02.000Z,30.3
2018-10-09T12:53:02.000Z,30.3
2018-10-09T12:54:02.000Z,30.3
2018-10-09T12:55:02.000Z,30.3
2018-10-09T12:57:02.000Z,30.4
2018-10-09T12:58:47.000Z,30.3
2018-10-09T13:00:02.000Z,30.3
2018-10-09T13:01:02.000Z,30.3
2018-10-09T13:03:02.000Z,30.3
2018-10-09T13:05:02.000Z,30.3
2018-10-09T13:07:02.000Z,30.2
2018-10-09T13:08:01.000Z,30.2
2018-10-09T13:09:01.000Z,30.3
2018-10-09T13:11:01.000Z,30.4
2018-10-09T13:12:01.000Z,30.4
2018-10-09T13:14:01.000Z,30.3
2018-10-09T13:15:01.000Z,30.3
2018-10-09T13:17:01.000Z,30.4
2018-10-09T13:18:01.000Z,30.3
2018-10-09T13:19:01.000Z,30.4
2018-10-09T13:20:01.000Z,30.5
2018-10-09T13:21:01.000Z,30.6
2018-10-09T13:23:01.000Z,30.6
2018-10-09T13:24:01.000Z,30.6
2018-10-09T13:26:01.000Z,30.6
2018-10-09T13:28:01.000Z,30.6
2018-10-09T13:30:01.000Z,30.5
2018-10-09T13:32:01.000Z,30.5
2018-10-09T13:33:01.000Z,30.5
2018-10-09T13:34:01.000Z,30.6
2018-10-09T13:35:01.000Z,30.7
2018-10-09T13:36:01.000Z,30.9
2018-10-09T13:37:46.000Z,31.1
2018-10-09T13:39:01.000Z,31.1
2018-10-09T13:40:01.000Z,31.2
2018-10-09T13:41:01.000Z,31.4
2018-10-09T13:43:01.000Z,31.8
2018-10-09T13:44:01.000Z,32
2018-10-09T13:46:01.000Z,32
2018-10-09T13:48:01.000Z,32
2018-10-09T13:50:01.000Z,31.9
2018-10-09T13:51:01.000Z,31.9
2018-10-09T13:52:01.000Z,31.9
2018-10-09T13:54:01.000Z,31.8
2018-10-09T13:55:01.000Z,31.7
2018-10-09T13:57:01.000Z,31.4
2018-10-09T13:58:01.000Z,31.3
2018-10-09T13:59:01.000Z,31.3
2018-10-09T14:01:01.000Z,31.1
2018-10-09T14:02:01.000Z,31.1
2018-10-09T14:04:01.000Z,31
2018-10-09T14:06:01.000Z,30.9
2018-10-09T14:08:01.000Z,30.8
2018-10-09T14:10:01.000Z,30.8
2018-10-09T14:11:01.000Z,30.8
2018-10-09T14:12:01.000Z,30.8
2018-10-09T14:13:01.000Z,30.9
2018-10-09T14:14:46.000Z,31
2018-10-09T14:16:01.000Z,30.9
2018-10-09T14:18:01.000Z,30.8
2018-10-09T14:20:01.000Z,30.7
2018-10-09T14:22:01.000Z,30.5
2018-10-09T14:23:01.000Z,30.5
2018-10-09T14:25:01.000Z,30.5
2018-10-09T14:26:01.000Z,30.5
2018-10-09T14:28:01.000Z,30.6
2018-10-09T14:29:01.000Z,30.6
2018-10-09T14:30:46.000Z,30.7
2018-10-09T14:32:01.000Z,30.6
2018-10-09T14:34:01.000Z,30.6
2018-10-09T14:36:01.000Z,30.5
2018-10-09T14:38:01.000Z,30.4
2018-10-09T14:39:01.000Z,30.5
2018-10-09T14:40:01.000Z,30.5
2018-10-09T14:41:01.000Z,30.6
2018-10-09T14:42:01.000Z,30.7
2018-10-09T14:43:01.000Z,30.8
2018-10-09T14:45:01.000Z,30.8
2018-10-09T14:47:01.000Z,30.8
2018-10-09T14:48:01.000Z,30.8
2018-10-09T14:49:01.000Z,30.8
2018-10-09T14:51:01.000Z,30.8
2018-10-09T14:53:01.000Z,30.7
2018-10-09T14:54:01.000Z,30.7
2018-10-09T14:55:01.000Z,30.7
2018-10-09T14:57:01.000Z,30.8
2018-10-09T14:59:01.000Z,30.6
2018-10-09T15:00:46.000Z,30.5
2018-10-09T15:02:01.000Z,30.5
2018-10-09T15:03:01.000Z,30.5
2018-10-09T15:04:01.000Z,30.5
2018-10-09T15:06:01.000Z,30.6
2018-10-09T15:08:01.000Z,30.5
2018-10-09T15:09:01.000Z,30.5
2018-10-09T15:10:01.000Z,30.6
2018-10-09T15:11:46.000Z,30.6
2018-10-09T15:13:01.000Z,30.6
2018-10-09T15:14:01.000Z,30.5
2018-10-09T15:15:01.000Z,30.6
2018-10-09T15:17:01.000Z,30.5
2018-10-09T15:18:01.000Z,30.5
2018-10-09T15:19:01.000Z,30.6
2018-10-09T15:20:46.000Z,30.6
2018-10-09T15:22:01.000Z,30.6
2018-10-09T15:23:01.000Z,30.6
2018-10-09T15:25:01.000Z,30.5
2018-10-09T15:27:01.000Z,30.5
2018-10-09T15:29:01.000Z,30.4
2018-10-09T15:30:01.000Z,30.4
2018-10-09T15:31:01.000Z,30.4
2018-10-09T15:33:01.000Z,30.5
2018-10-09T15:34:01.000Z,30.5
2018-10-09T15:36:01.000Z,30.6
2018-10-09T15:38:01.000Z,30.5
2018-10-09T15:39:01.000Z,30.5
2018-10-09T15:41:01.000Z,30.6
2018-10-09T15:42:01.000Z,30.6
2018-10-09T15:43:01.000Z,30.6
2018-10-09T15:44:01.000Z,30.7
2018-10-09T15:46:01.000Z,30.7
2018-10-09T15:47:01.000Z,30.7
2018-10-09T15:48:46.000Z,30.8
2018-10-09T15:50:01.000Z,30.7
2018-10-09T15:52:01.000Z,30.6
2018-10-09T15:54:01.000Z,30.6
2018-10-09T15:55:01.000Z,30.6
2018-10-09T15:56:01.000Z,30.6
2018-10-09T15:58:01.000Z,30.7
2018-10-09T16:00:01.000Z,30.7
2018-10-09T16:01:01.000Z,30.6
2018-10-09T16:03:01.000Z,30.6
2018-10-09T16:05:01.000Z,30.6
2018-10-09T16:07:01.000Z,30.5
2018-10-09T16:08:01.000Z,30.5
2018-10-09T16:09:01.000Z,30.6
2018-10-09T16:10:01.000Z,30.6
2018-10-09T16:12:01.000Z,30.7
2018-10-09T16:14:01.000Z,30.5
2018-10-09T16:15:01.000Z,30.5
2018-10-09T16:17:01.000Z,30.5
2018-10-09T16:19:02.000Z,30.4
2018-10-09T16:20:02.000Z,30.4
2018-10-09T16:22:02.000Z,30.4
2018-10-09T16:23:02.000Z,30.4
2018-10-09T16:24:47.000Z,30.4
2018-10-09T16:26:02.000Z,30.4
2018-10-09T16:28:02.000Z,30.3
2018-10-09T16:30:02.000Z,30.2
2018-10-09T16:32:02.000Z,30.1
2018-10-09T16:34:02.000Z,30.1
2018-10-09T16:35:02.000Z,30.1
2018-10-09T16:37:02.000Z,30.1
2018-10-09T16:38:02.000Z,30.1
2018-10-09T16:39:02.000Z,30.2
2018-10-09T16:41:02.000Z,30.3
2018-10-09T16:42:02.000Z,30.3
2018-10-09T16:44:02.000Z,30.3
2018-10-09T16:45:47.000Z,30.2
2018-10-09T16:47:02.000Z,30.1
2018-10-09T16:49:02.000Z,30
2018-10-09T16:50:02.000Z,30
2018-10-09T16:52:02.000Z,30
2018-10-09T16:53:02.000Z,29.9
2018-10-09T16:54:02.000Z,30
2018-10-09T16:56:02.000Z,30
2018-10-09T16:57:02.000Z,30
2018-10-09T16:59:02.000Z,30.1
2018-10-09T17:00:02.000Z,30.1
2018-10-09T17:02:02.000Z,30
2018-10-09T17:05:02.000Z,29.9
2018-10-09T17:06:02.000Z,30
2018-10-09T17:07:02.000Z,29.9
2018-10-09T17:08:02.000Z,30
2018-10-09T17:10:02.000Z,30.1
2018-10-09T17:11:02.000Z,30.1
2018-10-09T17:12:02.000Z,30.1
2018-10-09T17:14:02.000Z,30.1
2018-10-09T17:16:02.000Z,30
2018-10-09T17:18:02.000Z,29.9
2018-10-09T17:19:02.000Z,29.9
2018-10-09T17:21:02.000Z,29.9
2018-10-09T17:23:01.000Z,29.8
2018-10-09T17:25:01.000Z,29.8
2018-10-09T17:26:01.000Z,29.8
2018-10-09T17:27:01.000Z,29.8
2018-10-09T17:29:01.000Z,29.8
2018-10-09T17:30:01.000Z,29.8
2018-10-09T17:31:46.000Z,29.8
2018-10-09T17:33:01.000Z,29.8
2018-10-09T17:34:01.000Z,29.8
2018-10-09T17:35:46.000Z,29.8
2018-10-09T17:37:01.000Z,29.8
2018-10-09T17:38:01.000Z,29.8
2018-10-09T17:40:01.000Z,29.8
2018-10-09T17:41:46.000Z,29.8
2018-10-09T17:43:01.000Z,29.7
2018-10-09T17:44:01.000Z,29.8
2018-10-09T17:45:01.000Z,29.8
2018-10-09T17:47:01.000Z,29.7
2018-10-09T17:49:01.000Z,29.7
2018-10-09T17:50:46.000Z,29.7
2018-10-09T17:52:01.000Z,29.6
2018-10-09T17:53:01.000Z,29.6
2018-10-09T17:54:01.000Z,29.7
2018-10-09T17:56:01.000Z,29.7
2018-10-09T17:58:01.000Z,29.7
2018-10-09T18:00:01.000Z,29.7
2018-10-09T18:01:01.000Z,29.7
2018-10-09T18:03:01.000Z,29.7
2018-10-09T18:04:01.000Z,29.7
2018-10-09T18:06:01.000Z,29.8
2018-10-09T18:07:01.000Z,29.8
2018-10-09T18:08:01.000Z,29.9
2018-10-09T18:09:46.000Z,29.9
2018-10-09T18:11:01.000Z,29.9
2018-10-09T18:12:01.000Z,29.9
2018-10-09T18:14:01.000Z,29.9
2018-10-09T18:16:01.000Z,29.9
2018-10-09T18:17:01.000Z,29.9
2018-10-09T18:19:01.000Z,29.9
2018-10-09T18:21:01.000Z,29.8
2018-10-09T18:23:01.000Z,29.8
2018-10-09T18:24:46.000Z,29.8
2018-10-09T18:26:01.000Z,29.7
2018-10-09T18:27:01.000Z,29.7
2018-10-09T18:28:46.000Z,29.8
2018-10-09T18:30:01.000Z,29.7
2018-10-09T18:32:01.000Z,29.7
2018-10-09T18:33:01.000Z,29.7
2018-10-09T18:34:01.000Z,29.8
2018-10-09T18:36:01.000Z,29.9
2018-10-09T18:37:01.000Z,29.9
2018-10-09T18:38:46.000Z,29.9
2018-10-09T18:40:01.000Z,29.9
2018-10-09T18:42:01.000Z,29.8
2018-10-09T18:44:01.000Z,29.8
2018-10-09T18:45:02.000Z,29.8
2018-10-09T18:47:01.000Z,29.8
2018-10-09T18:48:01.000Z,29.8
2018-10-09T18:49:46.000Z,29.8
2018-10-09T18:51:01.000Z,29.8
2018-10-09T18:53:01.000Z,29.7
2018-10-09T18:54:01.000Z,29.7
2018-10-09T18:56:01.000Z,29.6
2018-10-09T18:57:01.000Z,29.6
2018-10-09T18:58:01.000Z,29.7
2018-10-09T18:59:01.000Z,29.7
2018-10-09T19:00:01.000Z,29.8
2018-10-09T19:01:02.000Z,29.8
2018-10-09T19:03:01.000Z,29.8
2018-10-09T19:04:01.000Z,29.8
2018-10-09T19:06:01.000Z,29.9
2018-10-09T19:07:01.000Z,29.9
2018-10-09T19:08:01.000Z,29.9
2018-10-09T19:10:01.000Z,29.9
2018-10-09T19:11:01.000Z,29.9
2018-10-09T19:12:02.000Z,29.9
2018-10-09T19:13:02.000Z,29.9
2018-10-09T19:14:02.000Z,29.9
2018-10-09T19:16:01.000Z,29.9
2018-10-09T19:17:01.000Z,29.9
2018-10-09T19:18:02.000Z,29.9
2018-10-09T19:20:01.000Z,29.9
2018-10-09T19:21:02.000Z,29.9
2018-10-09T19:23:02.000Z,29.9
2018-10-09T19:25:02.000Z,29.9
2018-10-09T19:27:02.000Z,29.8
2018-10-09T19:28:02.000Z,29.8
2018-10-09T19:29:02.000Z,29.8
2018-10-09T19:30:02.000Z,29.8
2018-10-09T19:32:02.000Z,29.8
2018-10-09T19:34:02.000Z,29.7
2018-10-09T19:36:02.000Z,29.6
2018-10-09T19:38:02.000Z,29.5
2018-10-09T19:40:02.000Z,29.5
2018-10-09T19:42:02.000Z,29.5
2018-10-09T19:43:02.000Z,29.5
2018-10-09T19:45:02.000Z,29.5
2018-10-09T19:47:02.000Z,29.6
2018-10-09T19:48:02.000Z,29.6
2018-10-09T19:49:02.000Z,29.6
2018-10-09T19:51:02.000Z,29.7
2018-10-09T19:53:02.000Z,29.7
2018-10-09T19:55:02.000Z,29.6
2018-10-09T19:56:46.000Z,29.6
2018-10-09T19:58:02.000Z,29.5
2018-10-09T19:59:02.000Z,29.6
2018-10-09T20:01:02.000Z,29.6
2018-10-09T20:03:02.000Z,29.5
2018-10-09T20:05:02.000Z,29.5
2018-10-09T20:07:02.000Z,29.4
2018-10-09T20:09:02.000Z,29.4
2018-10-09T20:11:02.000Z,29.4
2018-10-09T20:12:02.000Z,29.4
2018-10-09T20:14:02.000Z,29.5
2018-10-09T20:16:02.000Z,29.5
2018-10-09T20:18:02.000Z,29.5
2018-10-09T20:19:02.000Z,29.5
2018-10-09T20:21:02.000Z,29.5
2018-10-09T20:23:02.000Z,29.5
2018-10-09T20:25:02.000Z,29.4